Weatherby Lake, Missouri
Current Conditions -  °F | °C
As of 9:53 AM on Thursday 30 Oct 2014 (Local Time) from KMCI Reporting Station
Broken Clouds Broken Clouds  
Wind Chill: 51°   Ceiling: 15000
Heat Index: 51°   Visibility: 10mi
Dew Point: 43°   Wind: 5mph
Humidity: 74%   Direction: 230°SW
Pressure: 30.02"   Gusts: NA
Location:  39.2806°N, 94.7299°W
Report Text: KMCI 301453Z 23004KT 10SM SCT100 BKN150 11/06 A3002 RMK AO2 SLP166 T01060061 53009
Loading
Personal Weather Stations






























Interactive Weather Map
Tropical Storm Tracking
New forecast layout! Learn more

10-Day Weather Forecast

Advertisements
Track Severe Weather on mobile